Time;durP1;ratioP1;P1;durP2;ratioP2;P2;SDS_P1;SDS_P2;PMS_P1;PMS_P2;Temp;Humidity;BMP_temperature;BMP_pressure;BME280_temperature;BME280_humidity;BME280_pressure;Samples;Min_cycle;Max_cycle;Signal;HPM_P1;HPM_P2
2021/06/22 00:02:04;;;;;;;14.30;3.50;;;22.30;86.80;;;;;;5140313;27;20066;-70
2021/06/22 00:04:30;;;;;;;18.52;4.00;;;22.40;86.50;;;;;;5140352;27;20052;-70
2021/06/22 00:06:56;;;;;;;18.27;4.75;;;22.40;86.50;;;;;;5140542;27;20043;-70
2021/06/22 00:09:21;;;;;;;19.45;4.30;;;22.40;86.50;;;;;;5140527;27;20399;-70
2021/06/22 00:11:47;;;;;;;28.88;5.35;;;22.40;86.60;;;;;;5140459;27;20376;-70
2021/06/22 00:14:13;;;;;;;23.85;4.78;;;22.30;86.70;;;;;;5140479;27;20031;-70
2021/06/22 00:16:39;;;;;;;21.00;4.22;;;22.20;87.10;;;;;;5140358;27;20025;-70
2021/06/22 00:19:04;;;;;;;28.02;5.65;;;22.20;87.40;;;;;;5139957;27;20433;-70
2021/06/22 00:21:30;;;;;;;23.08;4.82;;;22.10;87.60;;;;;;5140006;27;20027;-70
2021/06/22 00:23:56;;;;;;;22.60;5.28;;;22.10;87.70;;;;;;5139982;27;20019;-70
2021/06/22 00:26:21;;;;;;;22.67;5.07;;;22.00;87.70;;;;;;5140119;27;20019;-70
2021/06/22 00:28:48;;;;;;;22.00;4.70;;;22.00;87.40;;;;;;5140157;27;20024;-70
2021/06/22 00:31:13;;;;;;;26.95;5.38;;;22.10;87.70;;;;;;5140112;27;20035;-70
2021/06/22 00:33:39;;;;;;;23.45;5.18;;;22.00;87.80;;;;;;5139568;27;20084;-70
2021/06/22 00:36:05;;;;;;;22.60;4.53;;;22.00;87.40;;;;;;5139621;27;20364;-70
2021/06/22 00:38:31;;;;;;;22.92;5.65;;;22.00;87.00;;;;;;5139860;27;20047;-70
2021/06/22 00:40:56;;;;;;;20.60;5.30;;;22.10;86.70;;;;;;5139599;27;20027;-70
2021/06/22 00:43:22;;;;;;;25.92;5.13;;;22.10;86.60;;;;;;5138983;27;20030;-70
2021/06/22 00:45:48;;;;;;;20.15;5.22;;;22.20;86.60;;;;;;5139643;27;20399;-70
2021/06/22 00:48:13;;;;;;;23.60;5.10;;;22.20;86.10;;;;;;5139744;27;20411;-70
2021/06/22 00:50:39;;;;;;;29.98;5.95;;;22.20;85.80;;;;;;5139402;27;20034;-70
2021/06/22 00:53:07;;;;;;;29.50;5.25;;;22.30;85.50;;;;;;5139578;27;20027;-70
2021/06/22 00:55:33;;;;;;;21.23;4.45;;;22.30;85.10;;;;;;5139609;27;20023;-70
2021/06/22 00:58:02;;;;;;;21.67;5.55;;;22.40;84.70;;;;;;5139160;27;20034;-70
2021/06/22 01:00:28;;;;;;;15.18;4.07;;;22.50;84.60;;;;;;5139542;27;20051;-70
2021/06/22 01:02:58;;;;;;;29.67;5.30;;;22.50;84.60;;;;;;5139465;27;20023;-70
2021/06/22 01:05:25;;;;;;;22.10;5.03;;;22.50;84.60;;;;;;5139399;27;20076;-70
2021/06/22 01:07:57;;;;;;;29.42;6.65;;;22.40;84.60;;;;;;5139353;27;20114;-70
2021/06/22 01:10:24;;;;;;;29.52;5.15;;;22.40;85.00;;;;;;5139322;27;20027;-70
2021/06/22 01:12:51;;;;;;;17.27;4.68;;;22.30;85.10;;;;;;5139226;27;20046;-70
2021/06/22 01:15:18;;;;;;;18.13;4.80;;;22.30;85.20;;;;;;5138852;27;20102;-70
2021/06/22 01:17:45;;;;;;;19.73;5.32;;;22.30;85.50;;;;;;5139114;27;20374;-70
2021/06/22 01:20:12;;;;;;;15.90;5.15;;;22.20;85.30;;;;;;5138772;27;20065;-70
2021/06/22 01:22:42;;;;;;;22.30;4.40;;;22.10;85.60;;;;;;5139068;27;20098;-70
2021/06/22 01:25:09;;;;;;;21.60;5.15;;;22.10;85.30;;;;;;5139030;27;20020;-70
2021/06/22 01:27:35;;;;;;;23.95;5.00;;;22.20;85.00;;;;;;5138631;27;20034;-70
2021/06/22 01:30:01;;;;;;;33.97;5.10;;;22.20;85.00;;;;;;5138937;27;20031;-70
2021/06/22 01:32:27;;;;;;;22.35;5.03;;;22.20;84.60;;;;;;5138603;27;20339;-70
2021/06/22 01:34:55;;;;;;;26.27;5.05;;;22.20;84.10;;;;;;5138742;27;20035;-70
2021/06/22 01:37:21;;;;;;;16.45;4.30;;;22.10;84.30;;;;;;5138694;27;20035;-70
2021/06/22 01:39:46;;;;;;;22.23;4.63;;;22.20;84.10;;;;;;5138722;27;20417;-70
2021/06/22 01:42:12;;;;;;;32.85;5.55;;;22.30;83.50;;;;;;5138659;27;20026;-70
2021/06/22 01:44:38;;;;;;;21.23;4.13;;;22.20;84.00;;;;;;5138339;27;20023;-70
2021/06/22 01:47:05;;;;;;;28.13;4.80;;;22.10;84.40;;;;;;5138287;27;20434;-70
2021/06/22 01:49:31;;;;;;;26.88;4.60;;;22.10;84.70;;;;;;5138550;27;20038;-70
2021/06/22 01:51:57;;;;;;;22.85;4.78;;;22.00;85.00;;;;;;5138528;27;20019;-70
2021/06/22 01:54:23;;;;;;;17.67;4.30;;;21.90;85.30;;;;;;5138089;27;20426;-70
2021/06/22 01:56:51;;;;;;;25.98;5.32;;;21.90;85.10;;;;;;5119800;27;20028;-70
2021/06/22 01:59:16;;;;;;;24.85;5.57;;;22.00;84.90;;;;;;5138317;27;20132;-70
2021/06/22 02:01:43;;;;;;;20.50;4.50;;;22.00;84.70;;;;;;5138068;27;20111;-70
2021/06/22 02:04:11;;;;;;;24.80;5.65;;;22.00;84.80;;;;;;5138350;27;20019;-70
2021/06/22 02:06:37;;;;;;;26.70;4.95;;;22.00;84.90;;;;;;5137956;27;20071;-70
2021/06/22 02:09:04;;;;;;;26.80;5.13;;;22.00;85.00;;;;;;5138314;27;20032;-70
2021/06/22 02:11:30;;;;;;;24.13;4.65;;;22.00;85.10;;;;;;5137919;27;20027;-70
2021/06/22 02:13:56;;;;;;;31.73;5.07;;;22.00;85.20;;;;;;5138352;27;20068;-70
2021/06/22 02:16:22;;;;;;;21.17;4.07;;;21.90;85.50;;;;;;5137799;27;20027;-70
2021/06/22 02:18:48;;;;;;;23.52;4.72;;;21.90;85.60;;;;;;5138058;27;20027;-70
2021/06/22 02:21:13;;;;;;;18.63;4.50;;;21.90;85.80;;;;;;5137799;27;20296;-70
2021/06/22 02:23:40;;;;;;;24.10;5.55;;;21.90;85.70;;;;;;5137745;27;20062;-70
2021/06/22 02:26:06;;;;;;;23.20;4.93;;;21.80;86.10;;;;;;5138045;27;20023;-70
2021/06/22 02:28:32;;;;;;;13.98;5.18;;;21.80;85.40;;;;;;5137668;27;20164;-70
2021/06/22 02:30:58;;;;;;;22.95;4.85;;;21.70;85.50;;;;;;5137710;27;20435;-70
2021/06/22 02:33:25;;;;;;;24.10;5.97;;;21.60;85.70;;;;;;5137609;28;20043;-70
2021/06/22 02:35:51;;;;;;;19.58;4.65;;;21.50;86.50;;;;;;5137570;28;20106;-70
2021/06/22 02:38:17;;;;;;;18.70;4.40;;;21.40;86.90;;;;;;5137857;28;20160;-70
2021/06/22 02:40:43;;;;;;;20.63;5.65;;;21.30;87.30;;;;;;5137927;28;20038;-70
2021/06/22 02:43:09;;;;;;;22.65;6.38;;;21.30;87.10;;;;;;5137861;28;20023;-70
2021/06/22 02:45:35;;;;;;;24.58;4.40;;;21.30;87.00;;;;;;5119350;28;20023;-71
2021/06/22 02:48:02;;;;;;;25.83;4.97;;;21.30;87.10;;;;;;5137824;28;20031;-70
2021/06/22 02:50:27;;;;;;;23.13;5.03;;;21.30;87.10;;;;;;5137814;28;20027;-70
2021/06/22 02:52:53;;;;;;;25.45;5.70;;;21.40;86.60;;;;;;5137778;28;20407;-70
2021/06/22 02:55:20;;;;;;;22.27;4.82;;;21.40;86.10;;;;;;5137787;28;20028;-70
2021/06/22 02:57:54;;;;;;;28.35;5.07;;;21.30;86.60;;;;;;5137348;28;20416;-70
2021/06/22 03:00:24;;;;;;;28.13;5.17;;;21.30;87.10;;;;;;5137459;28;20027;-70
2021/06/22 03:02:50;;;;;;;18.50;6.25;;;21.30;87.40;;;;;;5137710;28;20023;-70
2021/06/22 03:05:17;;;;;;;13.90;4.55;;;21.30;87.60;;;;;;5137682;28;20030;-70
2021/06/22 03:07:43;;;;;;;20.67;4.90;;;21.30;87.40;;;;;;5139354;27;20034;-70
2021/06/22 03:10:11;;;;;;;23.13;5.43;;;21.30;87.60;;;;;;5141735;27;20027;-70
2021/06/22 03:12:37;;;;;;;16.65;4.57;;;21.40;87.40;;;;;;5141532;27;20087;-70
2021/06/22 03:15:06;;;;;;;22.90;5.45;;;21.40;87.30;;;;;;5141577;27;20466;-70
2021/06/22 03:17:31;;;;;;;19.20;5.05;;;21.40;87.10;;;;;;5141121;27;20028;-70
2021/06/22 03:19:57;;;;;;;20.25;5.10;;;21.40;87.40;;;;;;5141164;27;20019;-70
2021/06/22 03:22:23;;;;;;;22.33;5.43;;;21.30;87.60;;;;;;5141467;27;20057;-70
2021/06/22 03:24:49;;;;;;;20.92;5.45;;;21.30;87.80;;;;;;5141418;27;20073;-70
2021/06/22 03:27:14;;;;;;;20.55;5.20;;;21.30;87.60;;;;;;5141373;27;20034;-70
2021/06/22 03:29:40;;;;;;;27.23;4.78;;;21.40;87.10;;;;;;5141337;27;20048;-70
2021/06/22 03:32:06;;;;;;;22.83;5.85;;;21.40;87.00;;;;;;5140777;27;20039;-70
2021/06/22 03:34:32;;;;;;;23.67;4.82;;;21.40;87.30;;;;;;5140942;27;20403;-70
2021/06/22 03:36:58;;;;;;;19.48;4.78;;;21.30;87.80;;;;;;5141189;27;20098;-70
2021/06/22 03:39:23;;;;;;;22.88;5.57;;;21.20;88.20;;;;;;5141073;27;20395;-70
2021/06/22 03:41:49;;;;;;;25.30;5.55;;;21.10;88.40;;;;;;5141075;27;20030;-70
2021/06/22 03:44:15;;;;;;;22.60;5.15;;;21.10;88.60;;;;;;5141191;27;20124;-70
2021/06/22 03:46:43;;;;;;;17.77;5.00;;;21.10;88.80;;;;;;5140887;27;20327;-70
2021/06/22 03:49:09;;;;;;;19.17;5.30;;;21.10;88.90;;;;;;5140950;27;20039;-70
2021/06/22 03:51:35;;;;;;;19.33;4.93;;;21.10;88.90;;;;;;5140893;27;20039;-70
2021/06/22 03:54:01;;;;;;;16.75;5.10;;;21.10;89.10;;;;;;5140903;27;20308;-70
2021/06/22 03:56:28;;;;;;;21.58;4.85;;;21.20;88.80;;;;;;5140761;27;20434;-70
2021/06/22 03:58:54;;;;;;;23.02;4.93;;;21.20;88.80;;;;;;5140646;27;20038;-70
2021/06/22 04:01:20;;;;;;;34.85;5.05;;;21.20;88.50;;;;;;5140415;27;20292;-70
2021/06/22 04:03:46;;;;;;;22.75;4.88;;;21.20;88.70;;;;;;5140408;27;20415;-70
2021/06/22 04:06:12;;;;;;;29.13;6.10;;;21.30;88.60;;;;;;5140591;27;20092;-70
2021/06/22 04:08:39;;;;;;;27.15;5.35;;;21.30;88.60;;;;;;5140557;27;20098;-70
2021/06/22 04:11:05;;;;;;;25.80;5.50;;;21.40;88.50;;;;;;5140545;27;20055;-70
2021/06/22 04:13:31;;;;;;;22.67;5.03;;;21.50;88.50;;;;;;5140281;27;20443;-70
2021/06/22 04:15:57;;;;;;;26.17;5.82;;;21.50;88.30;;;;;;5140130;27;20027;-70
2021/06/22 04:18:22;;;;;;;25.83;5.07;;;21.50;88.30;;;;;;5140194;27;20030;-70
2021/06/22 04:20:48;;;;;;;21.83;5.45;;;21.50;88.50;;;;;;5140373;27;20024;-70
2021/06/22 04:23:14;;;;;;;20.25;4.75;;;21.50;88.40;;;;;;5139986;27;20337;-70
2021/06/22 04:25:40;;;;;;;30.17;5.80;;;21.60;88.30;;;;;;5140252;27;20027;-70
2021/06/22 04:28:06;;;;;;;20.40;5.00;;;21.60;88.20;;;;;;5140192;27;20429;-70
2021/06/22 04:30:33;;;;;;;21.58;5.10;;;21.70;88.40;;;;;;5140202;27;20315;-70
2021/06/22 04:32:59;;;;;;;26.25;5.05;;;21.80;88.60;;;;;;5139579;27;20107;-70
2021/06/22 04:35:27;;;;;;;31.42;6.25;;;21.90;88.00;;;;;;5139690;27;20019;-70
2021/06/22 04:37:53;;;;;;;19.73;4.55;;;21.90;88.00;;;;;;5139896;27;20038;-70
2021/06/22 04:40:19;;;;;;;23.80;4.43;;;22.00;88.10;;;;;;5139684;27;20403;-70
2021/06/22 04:42:44;;;;;;;24.67;5.05;;;22.10;88.00;;;;;;5139799;27;20019;-70
2021/06/22 04:45:11;;;;;;;24.35;4.93;;;22.10;86.80;;;;;;5139914;27;20023;-70
2021/06/22 04:47:37;;;;;;;28.70;5.68;;;22.10;86.10;;;;;;5139528;27;20084;-70
2021/06/22 04:50:04;;;;;;;29.88;5.28;;;22.10;86.50;;;;;;5139459;27;20027;-70
2021/06/22 04:52:31;;;;;;;19.23;4.97;;;22.20;85.70;;;;;;5139388;27;20019;-70
2021/06/22 04:54:56;;;;;;;25.23;5.68;;;22.30;86.10;;;;;;5139677;27;20027;-70
2021/06/22 04:57:22;;;;;;;18.85;4.93;;;22.40;86.00;;;;;;5139228;27;20076;-70
2021/06/22 04:59:48;;;;;;;30.92;5.85;;;22.40;85.40;;;;;;5139546;27;20051;-70
2021/06/22 05:02:14;;;;;;;15.52;4.18;;;22.60;85.10;;;;;;5139449;27;20302;-70
2021/06/22 05:04:40;;;;;;;23.48;5.95;;;22.70;85.20;;;;;;5139555;27;20079;-70
2021/06/22 05:07:06;;;;;;;21.80;4.75;;;22.80;84.70;;;;;;5139344;27;20015;-70
2021/06/22 05:09:31;;;;;;;23.13;5.03;;;22.90;84.10;;;;;;5139397;27;20023;-70
2021/06/22 05:11:57;;;;;;;24.17;6.07;;;22.90;83.20;;;;;;5139333;27;20471;-70
2021/06/22 05:14:23;;;;;;;23.80;4.40;;;22.90;82.90;;;;;;5138989;27;20059;-70
2021/06/22 05:16:49;;;;;;;18.15;4.80;;;23.00;83.40;;;;;;5139157;27;20434;-70
2021/06/22 05:19:16;;;;;;;19.30;5.28;;;23.10;83.80;;;;;;5139082;27;20038;-70
2021/06/22 05:21:42;;;;;;;19.83;4.82;;;23.20;83.10;;;;;;5139153;27;20050;-70
2021/06/22 05:24:08;;;;;;;22.60;5.20;;;23.30;83.50;;;;;;5139094;27;20023;-70
2021/06/22 05:26:34;;;;;;;19.27;4.85;;;23.30;83.80;;;;;;5138985;27;20019;-70
2021/06/22 05:28:59;;;;;;;31.52;4.97;;;23.40;82.60;;;;;;5138634;27;20035;-70
2021/06/22 05:31:25;;;;;;;22.92;4.07;;;23.50;82.20;;;;;;5138411;27;20115;-70
2021/06/22 05:33:51;;;;;;;21.85;4.68;;;23.60;82.90;;;;;;5138519;27;20220;-70
2021/06/22 05:36:16;;;;;;;17.15;4.22;;;23.70;81.50;;;;;;5138783;27;20027;-70
2021/06/22 05:38:42;;;;;;;18.80;5.28;;;23.90;82.10;;;;;;5138714;27;20114;-70
2021/06/22 05:41:08;;;;;;;16.55;4.72;;;24.00;81.20;;;;;;5138770;27;20026;-70
2021/06/22 05:43:34;;;;;;;17.75;4.63;;;24.00;81.60;;;;;;5138265;27;20344;-70
2021/06/22 05:46:00;;;;;;;20.23;3.95;;;24.10;80.80;;;;;;5138638;27;20027;-70
2021/06/22 05:48:26;;;;;;;17.48;4.47;;;24.00;82.90;;;;;;5138648;27;20027;-70
2021/06/22 05:50:51;;;;;;;17.52;4.03;;;24.00;83.00;;;;;;5138278;27;20099;-70
2021/06/22 05:53:17;;;;;;;20.45;5.97;;;24.10;83.50;;;;;;5138244;27;20034;-70
2021/06/22 05:55:43;;;;;;;23.27;4.40;;;24.20;83.20;;;;;;5138500;27;20019;-70
2021/06/22 05:58:09;;;;;;;23.65;4.78;;;24.30;82.40;;;;;;5138099;27;20034;-70
2021/06/22 06:00:35;;;;;;;29.40;5.75;;;24.50;80.40;;;;;;5138466;27;20152;-70
2021/06/22 06:03:01;;;;;;;18.25;4.38;;;24.70;80.80;;;;;;5138384;27;20034;-70
2021/06/22 06:05:27;;;;;;;24.33;5.38;;;25.00;77.90;;;;;;5138350;27;20303;-70
2021/06/22 06:07:53;;;;;;;21.90;4.82;;;25.30;75.00;;;;;;5138319;27;20031;-70
2021/06/22 06:10:20;;;;;;;23.38;4.45;;;25.40;75.60;;;;;;5138004;27;20030;-70
2021/06/22 06:12:46;;;;;;;20.27;4.47;;;25.50;75.70;;;;;;5137918;27;20056;-70
2021/06/22 06:15:12;;;;;;;24.23;4.60;;;25.60;77.20;;;;;;5138165;27;20093;-70
2021/06/22 06:17:38;;;;;;;18.00;3.95;;;25.70;76.70;;;;;;5137810;27;20438;-70
2021/06/22 06:20:07;;;;;;;18.50;4.82;;;26.20;75.40;;;;;;5138174;27;20023;-70
2021/06/22 06:22:33;;;;;;;27.45;5.53;;;26.80;74.10;;;;;;5138092;27;20024;-70
2021/06/22 06:25:02;;;;;;;19.10;4.25;;;27.50;72.00;;;;;;5138133;27;20024;-70
2021/06/22 06:30:11;;;;;;;15.32;4.15;;;28.50;68.80;;;;;;5137862;27;20088;-70
2021/06/22 06:32:37;;;;;;;20.30;5.28;;;28.90;68.20;;;;;;5137684;27;20316;-70
2021/06/22 06:35:05;;;;;;;15.82;3.92;;;29.10;67.20;;;;;;5137919;27;20034;-70
2021/06/22 06:37:31;;;;;;;27.00;4.50;;;29.30;67.10;;;;;;5137564;28;20110;-70
2021/06/22 06:39:57;;;;;;;21.42;4.70;;;29.40;65.50;;;;;;5137965;28;20024;-70
2021/06/22 06:42:22;;;;;;;18.77;4.45;;;29.50;65.30;;;;;;5139471;27;20030;-70
2021/06/22 06:44:48;;;;;;;14.57;3.80;;;29.90;64.30;;;;;;5142398;27;20031;-69
2021/06/22 06:47:14;;;;;;;19.20;4.88;;;30.10;63.30;;;;;;5142153;27;20023;-70
2021/06/22 06:49:40;;;;;;;18.63;4.30;;;30.10;63.90;;;;;;5142140;27;20155;-70
2021/06/22 06:52:06;;;;;;;14.65;4.07;;;30.10;64.50;;;;;;5142089;27;20023;-70
2021/06/22 06:54:32;;;;;;;24.70;5.82;;;30.20;64.10;;;;;;5142087;27;20037;-70
2021/06/22 06:56:58;;;;;;;15.98;4.40;;;30.50;63.90;;;;;;5141931;27;20095;-70
2021/06/22 06:59:24;;;;;;;21.33;4.55;;;30.50;64.10;;;;;;5141509;27;20072;-69
2021/06/22 07:01:50;;;;;;;20.30;4.32;;;30.70;63.90;;;;;;5141601;27;20368;-69
2021/06/22 07:04:15;;;;;;;22.10;4.25;;;30.70;63.50;;;;;;5141866;27;20346;-70
2021/06/22 07:06:41;;;;;;;20.20;4.72;;;31.00;63.40;;;;;;5141749;27;20026;-69
2021/06/22 07:09:08;;;;;;;22.05;5.22;;;30.80;62.50;;;;;;5123293;27;20039;-71
2021/06/22 07:11:33;;;;;;;21.85;4.80;;;30.80;63.40;;;;;;5141672;27;20300;-69
2021/06/22 07:13:59;;;;;;;24.63;4.88;;;30.90;63.40;;;;;;5141280;27;20080;-70
2021/06/22 07:16:25;;;;;;;26.00;4.10;;;30.70;63.30;;;;;;5141262;27;20035;-70
2021/06/22 07:18:51;;;;;;;20.15;4.78;;;30.30;63.50;;;;;;5141184;27;20031;-70
2021/06/22 07:21:18;;;;;;;20.98;5.35;;;29.60;65.80;;;;;;5141219;27;20058;-69
2021/06/22 07:23:44;;;;;;;16.40;4.18;;;29.50;66.00;;;;;;5141450;27;20364;-69
2021/06/22 07:26:10;;;;;;;21.50;3.90;;;29.70;65.80;;;;;;5141091;27;20106;-69
2021/06/22 07:28:36;;;;;;;18.55;4.63;;;30.00;65.50;;;;;;5141047;27;20106;-69
2021/06/22 07:31:06;;;;;;;16.23;4.40;;;30.30;64.20;;;;;;5141357;27;20023;-71
2021/06/22 07:33:32;;;;;;;22.95;4.88;;;30.60;64.10;;;;;;5140860;27;20054;-70
2021/06/22 07:35:57;;;;;;;22.05;5.03;;;31.00;63.60;;;;;;5140846;27;20030;-70
2021/06/22 07:38:23;;;;;;;26.85;4.65;;;30.90;63.00;;;;;;5141079;27;20140;-69
2021/06/22 07:40:49;;;;;;;19.10;4.70;;;31.00;63.40;;;;;;5141134;27;20102;-70
2021/06/22 07:43:15;;;;;;;13.57;4.20;;;30.90;63.00;;;;;;5141108;27;20023;-70
2021/06/22 07:45:41;;;;;;;14.07;5.15;;;31.00;64.10;;;;;;5140813;27;20121;-70
2021/06/22 07:48:08;;;;;;;19.65;5.18;;;31.00;63.40;;;;;;5141053;27;20330;-70
2021/06/22 07:50:34;;;;;;;20.13;5.70;;;31.10;62.70;;;;;;5140645;27;20059;-70
2021/06/22 07:53:02;;;;;;;23.58;5.15;;;31.10;62.70;;;;;;5140090;27;20114;-70
2021/06/22 07:55:28;;;;;;;18.35;4.63;;;30.80;64.00;;;;;;5140563;27;20027;-70
2021/06/22 07:57:54;;;;;;;22.20;5.32;;;30.90;63.50;;;;;;5140755;27;20106;-70
2021/06/22 08:00:53;;;;;;;17.00;4.35;;;30.80;64.30;;;;;;5140439;27;20026;-69
2021/06/22 08:03:21;;;;;;;18.80;5.35;;;30.80;64.10;;;;;;5139972;27;20030;-70
2021/06/22 08:05:49;;;;;;;24.58;5.20;;;30.90;63.50;;;;;;5140673;27;20023;-70
2021/06/22 08:08:17;;;;;;;18.67;3.97;;;31.20;61.90;;;;;;5140623;27;20030;-70
2021/06/22 08:10:47;;;;;;;24.67;5.85;;;31.20;62.40;;;;;;5140575;27;20035;-70
2021/06/22 08:13:13;;;;;;;23.52;5.05;;;31.60;62.70;;;;;;5140349;27;20035;-70
2021/06/22 08:15:40;;;;;;;20.52;4.45;;;32.10;62.50;;;;;;5140132;27;20102;-70
2021/06/22 08:18:06;;;;;;;21.88;5.25;;;32.40;61.30;;;;;;5140332;27;20030;-70
2021/06/22 08:20:32;;;;;;;18.23;4.43;;;32.40;60.10;;;;;;5140084;27;20475;-70
2021/06/22 08:22:59;;;;;;;18.58;5.07;;;32.50;61.30;;;;;;5140281;27;20022;-70
2021/06/22 08:25:26;;;;;;;25.95;4.50;;;32.70;59.80;;;;;;5140286;27;20054;-70
2021/06/22 08:27:52;;;;;;;19.02;4.80;;;32.90;59.00;;;;;;5140262;27;20023;-70
2021/06/22 08:30:20;;;;;;;24.70;4.43;;;32.90;59.20;;;;;;5140231;27;20163;-70
2021/06/22 08:32:46;;;;;;;28.48;4.85;;;33.20;60.40;;;;;;5139768;27;20039;-70
2021/06/22 08:35:12;;;;;;;21.80;5.15;;;33.00;59.70;;;;;;5140050;27;20031;-70
2021/06/22 08:37:38;;;;;;;24.80;4.63;;;33.00;60.20;;;;;;5139998;27;20466;-70
2021/06/22 08:40:05;;;;;;;19.98;4.78;;;33.10;59.80;;;;;;5139685;27;20415;-70
2021/06/22 08:42:34;;;;;;;25.67;4.55;;;33.40;57.40;;;;;;5139547;27;20019;-69
2021/06/22 08:45:00;;;;;;;22.55;4.82;;;33.70;58.80;;;;;;5139898;27;20023;-70
2021/06/22 08:47:27;;;;;;;26.45;5.10;;;33.90;57.30;;;;;;5139568;27;20102;-70
2021/06/22 08:49:55;;;;;;;20.23;5.15;;;33.80;58.30;;;;;;5139644;27;20054;-69
2021/06/22 08:52:25;;;;;;;20.42;5.28;;;34.00;57.90;;;;;;5139407;27;20038;-70
2021/06/22 08:54:54;;;;;;;29.52;4.85;;;33.90;58.30;;;;;;5139711;27;20051;-70
2021/06/22 08:57:23;;;;;;;26.17;5.90;;;34.20;58.30;;;;;;5139654;27;20027;-70
2021/06/22 08:59:49;;;;;;;29.65;5.22;;;34.30;58.00;;;;;;5139541;27;20027;-70
2021/06/22 09:02:16;;;;;;;28.42;5.13;;;33.60;58.00;;;;;;5139568;27;20019;-70
2021/06/22 09:04:41;;;;;;;26.25;5.50;;;33.20;58.40;;;;;;5138650;27;20020;-70
2021/06/22 09:07:07;;;;;;;22.40;5.75;;;32.80;60.80;;;;;;5139412;27;20026;-70
2021/06/22 09:09:35;;;;;;;16.90;5.40;;;32.00;60.70;;;;;;5139177;27;20115;-69
2021/06/22 09:12:11;;;;;;;26.48;5.25;;;31.10;62.10;;;;;;5138983;27;20030;-69
2021/06/22 09:14:41;;;;;;;20.85;5.32;;;30.90;63.00;;;;;;5139469;27;20039;-69
2021/06/22 09:17:08;;;;;;;34.03;5.93;;;30.50;64.10;;;;;;5139221;27;20034;-70
2021/06/22 09:19:34;;;;;;;21.30;4.25;;;31.20;65.10;;;;;;5138819;27;20027;-69
2021/06/22 09:22:17;;;;;;;27.52;4.97;;;31.70;63.90;;;;;;5139162;27;20068;-70
2021/06/22 09:25:10;;;;;;;26.48;5.28;;;32.00;63.80;;;;;;5138853;27;20019;-70
2021/06/22 09:27:52;;;;;;;22.08;4.55;;;32.70;59.90;;;;;;5138796;27;20102;-70
2021/06/22 09:30:44;;;;;;;29.20;5.80;;;33.20;58.90;;;;;;5139066;27;20024;-70
2021/06/22 09:33:16;;;;;;;15.38;4.13;;;33.90;58.60;;;;;;5124796;27;20027;-70
2021/06/22 09:35:42;;;;;;;27.15;5.00;;;34.40;56.90;;;;;;5138861;27;20030;-70
2021/06/22 09:38:08;;;;;;;27.52;5.32;;;34.50;58.40;;;;;;5138499;27;20031;-70
2021/06/22 09:40:34;;;;;;;31.27;5.47;;;34.80;56.60;;;;;;5138548;27;20015;-70
2021/06/22 09:42:59;;;;;;;18.90;4.82;;;35.00;55.30;;;;;;5138759;27;20025;-70
2021/06/22 09:45:28;;;;;;;29.05;5.07;;;34.10;57.10;;;;;;5138392;27;20049;-70
2021/06/22 09:47:57;;;;;;;25.00;5.13;;;33.10;58.80;;;;;;5138717;27;20114;-70
2021/06/22 09:50:39;;;;;;;17.40;4.10;;;32.10;61.90;;;;;;5138646;27;20023;-70
2021/06/22 09:53:24;;;;;;;30.42;5.53;;;31.20;62.00;;;;;;5138259;27;20027;-70
2021/06/22 09:55:50;;;;;;;20.25;5.13;;;30.50;63.30;;;;;;5138213;27;20031;-70
2021/06/22 09:58:16;;;;;;;21.83;5.13;;;29.90;64.80;;;;;;5138611;27;20400;-70
2021/06/22 10:00:42;;;;;;;28.85;6.00;;;29.60;68.40;;;;;;5138473;27;20030;-70
2021/06/22 10:03:08;;;;;;;20.73;5.65;;;29.60;67.80;;;;;;5138407;27;20315;-70
2021/06/22 10:05:50;;;;;;;20.38;4.85;;;29.60;68.80;;;;;;5138354;27;20030;-70
2021/06/22 10:08:15;;;;;;;26.63;5.72;;;30.50;68.60;;;;;;5138057;27;20031;-70
2021/06/22 10:10:41;;;;;;;25.27;6.03;;;31.60;65.50;;;;;;5138319;27;20026;-70
2021/06/22 10:13:08;;;;;;;31.45;6.75;;;32.00;62.40;;;;;;5138039;27;20057;-70
2021/06/22 10:15:34;;;;;;;26.88;5.60;;;31.30;62.80;;;;;;5137594;27;20030;-70
2021/06/22 10:18:00;;;;;;;27.60;5.18;;;30.90;63.20;;;;;;5130143;27;20027;-70
2021/06/22 10:20:26;;;;;;;25.02;5.15;;;30.20;65.10;;;;;;5126632;27;20034;-70
2021/06/22 10:22:51;;;;;;;21.65;5.30;;;29.90;66.60;;;;;;5117335;28;20027;-70
2021/06/22 10:25:18;;;;;;;25.08;5.70;;;29.60;65.70;;;;;;5117544;28;20065;-70
2021/06/22 10:27:47;;;;;;;19.77;5.07;;;30.40;66.40;;;;;;5117213;28;20035;-70
2021/06/22 10:30:13;;;;;;;22.25;5.30;;;31.20;64.50;;;;;;5117483;28;20023;-70
2021/06/22 10:32:39;;;;;;;19.83;5.53;;;31.60;62.30;;;;;;5116971;28;20062;-70
2021/06/22 10:35:11;;;;;;;22.00;5.88;;;31.80;63.10;;;;;;5117406;28;20096;-70
2021/06/22 10:37:38;;;;;;;19.25;4.60;;;31.70;66.20;;;;;;5117315;28;20031;-70
2021/06/22 10:40:26;;;;;;;24.80;5.32;;;31.80;61.70;;;;;;5117412;28;20026;-70
2021/06/22 10:42:59;;;;;;;22.65;5.78;;;32.30;60.10;;;;;;5117126;28;20105;-70
2021/06/22 10:45:25;;;;;;;22.73;5.28;;;32.70;59.30;;;;;;5117315;28;20080;-70
2021/06/22 10:47:56;;;;;;;20.85;4.65;;;32.90;60.50;;;;;;5116975;28;20155;-70
2021/06/22 10:50:24;;;;;;;24.15;5.15;;;33.30;59.30;;;;;;5117035;28;20034;-69
2021/06/22 10:52:58;;;;;;;22.15;5.00;;;33.50;60.90;;;;;;5117225;28;20043;-70
2021/06/22 10:55:34;;;;;;;16.73;5.15;;;33.60;56.50;;;;;;5117209;28;20028;-70
2021/06/22 10:58:03;;;;;;;23.83;6.32;;;33.90;59.50;;;;;;5116844;28;20111;-70
2021/06/22 11:00:30;;;;;;;20.20;5.72;;;34.00;58.40;;;;;;5116847;28;20020;-70
2021/06/22 11:02:58;;;;;;;24.27;5.45;;;32.90;59.40;;;;;;5117193;28;20052;-70
2021/06/22 11:05:25;;;;;;;19.98;5.65;;;32.10;59.30;;;;;;5117157;28;20315;-70
2021/06/22 11:08:11;;;;;;;31.95;6.15;;;31.40;60.20;;;;;;5117136;28;20024;-70
2021/06/22 11:10:39;;;;;;;23.52;5.65;;;31.30;63.30;;;;;;5117099;28;20042;-70
2021/06/22 11:13:06;;;;;;;26.40;5.55;;;31.90;64.30;;;;;;5117040;28;20028;-70
2021/06/22 11:15:48;;;;;;;19.75;6.57;;;32.10;64.20;;;;;;5117020;28;20020;-70
2021/06/22 11:18:18;;;;;;;22.35;5.75;;;32.00;58.70;;;;;;5116934;28;20369;-70
2021/06/22 11:20:46;;;;;;;22.08;4.88;;;32.20;63.50;;;;;;5116716;28;20028;-70
2021/06/22 11:23:21;;;;;;;20.58;5.22;;;32.40;61.20;;;;;;5116967;28;20035;-70
2021/06/22 11:25:46;;;;;;;30.08;6.25;;;32.40;59.60;;;;;;5116681;28;20019;-70
2021/06/22 11:28:12;;;;;;;20.15;5.75;;;32.00;59.30;;;;;;5117799;28;20088;-70
2021/06/22 11:30:51;;;;;;;23.80;5.15;;;31.90;59.20;;;;;;5120507;28;20031;-70
2021/06/22 11:33:44;;;;;;;21.65;5.60;;;32.00;61.50;;;;;;5120424;28;20044;-70
2021/06/22 11:36:21;;;;;;;21.17;5.45;;;32.30;61.60;;;;;;5120706;28;20038;-70
2021/06/22 11:39:29;;;;;;;18.08;5.38;;;32.60;61.90;;;;;;5120307;28;20039;-70
2021/06/22 11:42:11;;;;;;;23.95;5.28;;;32.70;58.70;;;;;;5109315;28;20019;-70
2021/06/22 11:44:55;;;;;;;15.77;4.25;;;32.60;60.00;;;;;;5120759;28;20062;-70
2021/06/22 11:47:26;;;;;;;16.92;4.55;;;32.40;56.00;;;;;;5120527;28;20088;-70
2021/06/22 11:49:53;;;;;;;17.17;4.43;;;32.20;60.30;;;;;;5120442;28;20031;-70
2021/06/22 11:52:22;;;;;;;20.30;3.90;;;32.10;61.10;;;;;;5120388;28;20312;-70
2021/06/22 11:54:51;;;;;;;22.42;4.82;;;32.10;56.70;;;;;;5120020;28;20463;-70
2021/06/22 11:57:18;;;;;;;18.65;4.60;;;31.80;58.70;;;;;;5120315;28;20027;-70
2021/06/22 11:59:44;;;;;;;18.80;5.03;;;31.10;61.40;;;;;;5119851;28;20031;-70
2021/06/22 12:02:12;;;;;;;21.08;5.00;;;30.50;59.80;;;;;;5120194;28;20015;-70
2021/06/22 12:04:37;;;;;;;26.15;5.00;;;30.40;67.00;;;;;;5120214;28;20365;-70
2021/06/22 12:07:03;;;;;;;15.52;4.75;;;30.60;61.70;;;;;;5119739;28;20020;-70
2021/06/22 12:09:29;;;;;;;20.42;4.88;;;30.60;62.60;;;;;;5120033;28;20023;-70
2021/06/22 12:11:56;;;;;;;18.40;5.18;;;30.20;64.60;;;;;;5119709;28;20412;-70
2021/06/22 12:14:22;;;;;;;15.40;4.50;;;30.30;67.90;;;;;;5120030;28;20088;-70
2021/06/22 12:16:49;;;;;;;25.95;4.57;;;30.50;60.70;;;;;;5119533;28;20024;-70
2021/06/22 12:19:18;;;;;;;17.48;4.85;;;30.70;64.50;;;;;;5119479;28;20035;-70
2021/06/22 12:21:52;;;;;;;16.42;4.15;;;30.80;64.70;;;;;;5119480;28;20023;-70
2021/06/22 12:24:20;;;;;;;18.15;3.70;;;31.10;64.30;;;;;;5119537;28;20427;-70
2021/06/22 12:26:49;;;;;;;18.08;4.20;;;31.40;63.20;;;;;;5119694;28;20024;-70
2021/06/22 12:29:31;;;;;;;16.95;3.83;;;31.30;60.60;;;;;;5119341;28;20023;-70
2021/06/22 12:31:57;;;;;;;16.33;3.60;;;31.30;58.30;;;;;;5119173;28;20031;-70
2021/06/22 12:34:27;;;;;;;17.45;4.05;;;31.40;57.70;;;;;;5119615;28;20058;-70
2021/06/22 12:36:54;;;;;;;19.15;4.72;;;31.10;56.90;;;;;;5119765;28;20026;-70
2021/06/22 12:39:21;;;;;;;18.27;4.05;;;30.50;58.70;;;;;;5119054;28;20047;-70
2021/06/22 12:41:47;;;;;;;19.98;3.80;;;29.90;62.00;;;;;;5119127;28;20072;-70